WetterOnline ( http://www.wetteronline.de )

Wetter aktuell Oeverdiek, Neuhof, Timmendorfer Strand

Aktuelles Wetter: Pelzerhaken/Neustadt i.H. (2m)

6-stündlich | Neueste Meldungen
Ortszeit Temperatur Wetter
Sa, 21.07. 8:00 18.8° C leicht bewölkt
Sa, 21.07. 2:00 12.0° C leicht bewölkt
Fr, 20.07. 20:00 22.3° C leicht bewölkt
Fr, 20.07. 14:00 23.9° C wolkig
Fr, 20.07. 8:00 16.4° C wolkenlos
Fr, 20.07. 2:00 14.6° C fast wolkenlos
Do, 19.07. 20:00 22.8° C wolkenlos
Do, 19.07. 14:00 23.1° C bewölkt
Ortszeit Temperatur Wetter
Sa, 21.07. 13:30 23.6° C wolkig
Sa, 21.07. 13:20 23.6° C wolkig
Sa, 21.07. 13:10 24.1° C wolkig
Sa, 21.07. 13:00 22.8° C leicht bewölkt
Sa, 21.07. 12:50 22.8° C wolkig
Sa, 21.07. 12:40 22.6° C wolkig
Sa, 21.07. 12:30 22.6° C wolkig
Sa, 21.07. 12:00 23.3° C fast wolkenlos
Sa, 21.07. 11:30 21.8° C fast wolkenlos
Sa, 21.07. 11:00 22.4° C leicht bewölkt
Sa, 21.07. 10:30 22.0° C wolkig
Ortszeit Relative Feuchte Sichtweite
Sa, 21.07. 8:00 69% 30 km
Sa, 21.07. 2:00 94% 10 km
Fr, 20.07. 20:00 58% 50 km
Fr, 20.07. 14:00 44% 28 km
Fr, 20.07. 8:00 75% 26 km
Fr, 20.07. 2:00 71% 70 km
Do, 19.07. 20:00 39% 45 km
Do, 19.07. 14:00 45% 55 km
Ortszeit Relative Feuchte Sichtweite
Sa, 21.07. 13:30 55% 35 km
Sa, 21.07. 13:20 55% -
Sa, 21.07. 13:10 52% -
Sa, 21.07. 13:00 57% 29 km
Sa, 21.07. 12:50 57% -
Sa, 21.07. 12:40 59% -
Sa, 21.07. 12:30 59% 30 km
Sa, 21.07. 12:00 55% 23 km
Sa, 21.07. 11:30 59% 29 km
Sa, 21.07. 11:00 57% 30 km
Sa, 21.07. 10:30 53% 35 km
Ortszeit Niederschlagsmenge Niederschlagsart
Sa, 21.07. 8:00 0.1 l/m2 in 12 Std. Sprühregen
Sa, 21.07. 2:00 0.0 l/m2 in 6 Std. -
Fr, 20.07. 20:00 0.0 l/m2 in 12 Std. -
Fr, 20.07. 14:00 0.0 l/m2 in 6 Std. -
Fr, 20.07. 8:00 0.0 l/m2 in 12 Std. -
Fr, 20.07. 2:00 0.0 l/m2 in 6 Std. -
Do, 19.07. 20:00 0.0 l/m2 in 12 Std. -
Do, 19.07. 14:00 0.0 l/m2 in 6 Std. -
Ortszeit Niederschlagsmenge Niederschlagsart
Sa, 21.07. 13:30 0.0 l/m2 in 1 Std. -
Sa, 21.07. 13:20 keine Meldung -
Sa, 21.07. 13:10 keine Meldung -
Sa, 21.07. 13:00 0.0 l/m2 in 1 Std. -
Sa, 21.07. 12:50 keine Meldung -
Sa, 21.07. 12:40 keine Meldung -
Sa, 21.07. 12:30 0.0 l/m2 in 1 Std. -
Sa, 21.07. 12:00 0.0 l/m2 in 1 Std. -
Sa, 21.07. 11:30 0.0 l/m2 in 1 Std. -
Sa, 21.07. 11:00 0.0 l/m2 in 1 Std. -
Sa, 21.07. 10:30 0.0 l/m2 in 1 Std. -
Ortszeit Stärke Spitze Richtung
km/h Bft. km/h Grad Sektor
Sa, 21.07. 8:00 4 1 11 250° W
Sa, 21.07. 2:00 6 1 11 330° NW
Fr, 20.07. 20:00 7 2 25 120° SO
Fr, 20.07. 14:00 17 3 26 150° SO
Fr, 20.07. 8:00 7 2 18 310° NW
Fr, 20.07. 2:00 11 2 22 310° NW
Do, 19.07. 20:00 11 2 37 260° W
Do, 19.07. 14:00 14 3 32 310° NW
Ortszeit Stärke Spitze Richtung
km/h Bft. km/h Grad Sektor
Sa, 21.07. 13:30 11 2 14 80° O
Sa, 21.07. 13:20 11 2 - 80° O
Sa, 21.07. 13:10 9 2 - 90° O
Sa, 21.07. 13:00 9 2 13 80° O
Sa, 21.07. 12:50 9 2 - 80° O
Sa, 21.07. 12:40 9 2 - 80° O
Sa, 21.07. 12:30 9 2 13 80° O
Sa, 21.07. 12:00 7 2 11 90° O
Sa, 21.07. 11:30 7 2 11 80° O
Sa, 21.07. 11:00 7 2 11 100° O
Sa, 21.07. 10:30 6 1 7 110° O
Ortszeit Untergrenze Bedeckung Gattung
total tief tief mittel hoch
Sa, 21.07. 8:00 2700 m 2/8 1/8 - - -
Sa, 21.07. 2:00 2700 m 2/8 2/8 - - -
Fr, 20.07. 20:00 9000 m 7/8 0/8 - - -
Fr, 20.07. 14:00 - 8/8 - - - -
Fr, 20.07. 8:00 - 0/8 0/8 - - -
Fr, 20.07. 2:00 10500 m 1/8 0/8 - - -
Do, 19.07. 20:00 - 0/8 0/8 - - -
Do, 19.07. 14:00 1500 m 7/8 - - - -
Ortszeit Bedeckungsgrad in Achtel und Wolkenuntergrenze
Sa, 21.07. 13:30 3(8100m) 7(9000m)
Sa, 21.07. 13:20 3(8100m) 7(9000m)
Sa, 21.07. 13:10 1(8100m) 2(9000m) 7(9000m)
Sa, 21.07. 13:00 6(9000m) 8(9000m)
Sa, 21.07. 12:50 6(9000m) 8(9000m)
Sa, 21.07. 12:40 5(9000m) 7(9000m)
Sa, 21.07. 12:30 5(9000m) 7(9000m)
Sa, 21.07. 12:00 2(9000m)
Sa, 21.07. 11:30 1(9000m)
Sa, 21.07. 11:00 1(7800m) 3(9000m)
Sa, 21.07. 10:30 2(8100m) 7(8700m) 7(9000m)
Ortszeit Luftdruck NN (hPa) Tendenz (hPa in 3 Std.)
Sa, 21.07. 8:00 1014 + 0,3
Sa, 21.07. 2:00 1014 - 0,3
Fr, 20.07. 20:00 1014 - 0,9
Fr, 20.07. 14:00 1016 - 0,7
Fr, 20.07. 8:00 1017 - 0,1
Fr, 20.07. 2:00 1017 - 0,2
Do, 19.07. 20:00 1017 - 0,6
Do, 19.07. 14:00 1018 - 0,5
Ortszeit Luftdruck NN (hPa) Tendenz (hPa in 3 Std.)
Sa, 21.07. 13:30 1013 - 0,6
Sa, 21.07. 13:20 1013 keine Meldung
Sa, 21.07. 13:10 1013 keine Meldung
Sa, 21.07. 13:00 1013 - 0,4
Sa, 21.07. 12:50 1013 keine Meldung
Sa, 21.07. 12:40 1014 keine Meldung
Sa, 21.07. 12:30 1014 - 0,2
Sa, 21.07. 12:00 1014 - 0,1
Sa, 21.07. 11:30 1014 + 0,1
Sa, 21.07. 11:00 1014 + 0,3
Sa, 21.07. 10:30 1014 + 0,6
Ortszeit Schneehöhe (cm)
Sa, 21.07. 8:00 0
Sa, 21.07. 2:00 0
Fr, 20.07. 20:00 0
Fr, 20.07. 14:00 0
Fr, 20.07. 8:00 0
Fr, 20.07. 2:00 0
Do, 19.07. 20:00 0
Do, 19.07. 14:00 0
Ortszeit Schneehöhe (cm)
Sa, 21.07. 13:30 0
Sa, 21.07. 13:20 0
Sa, 21.07. 13:10 0
Sa, 21.07. 13:00 0
Sa, 21.07. 12:50 0
Sa, 21.07. 12:40 0
Sa, 21.07. 12:30 0
Sa, 21.07. 12:00 0
Sa, 21.07. 11:30 0
Sa, 21.07. 11:00 0
Sa, 21.07. 10:30 0
Link zu dieser Seite / Seite empfehlen

Das Wetter in ...